sensor_id;sensor_type;location;lat;lon;timestamp;pressure;altitude;pressure_sealevel;temperature;humidity
75747;BME280;70632;52.232;21.038;2023-07-13T00:01:50;99834.91;;;24.66;60.25
75747;BME280;70632;52.232;21.038;2023-07-13T00:04:17;99825.44;;;24.70;60.21
75747;BME280;70632;52.232;21.038;2023-07-13T00:06:44;99840.94;;;24.33;61.53
75747;BME280;70632;52.232;21.038;2023-07-13T00:09:12;99831.28;;;24.75;60.30
75747;BME280;70632;52.232;21.038;2023-07-13T00:11:40;99832.75;;;24.97;59.39
75747;BME280;70632;52.232;21.038;2023-07-13T00:14:07;99826.78;;;25.11;58.47
75747;BME280;70632;52.232;21.038;2023-07-13T00:16:35;99827.38;;;25.05;58.74
75747;BME280;70632;52.232;21.038;2023-07-13T00:19:01;99830.75;;;25.16;58.25
75747;BME280;70632;52.232;21.038;2023-07-13T00:21:27;99820.97;;;24.96;58.93
75747;BME280;70632;52.232;21.038;2023-07-13T00:23:53;99817.16;;;24.89;59.45
75747;BME280;70632;52.232;21.038;2023-07-13T00:26:19;99819.53;;;25.02;58.71
75747;BME280;70632;52.232;21.038;2023-07-13T00:28:44;99820.63;;;24.54;59.89
75747;BME280;70632;52.232;21.038;2023-07-13T00:31:12;99817.66;;;24.75;59.74
75747;BME280;70632;52.232;21.038;2023-07-13T00:33:40;99809.84;;;24.80;59.31
75747;BME280;70632;52.232;21.038;2023-07-13T00:36:06;99809.06;;;24.70;59.65
75747;BME280;70632;52.232;21.038;2023-07-13T00:38:32;99817.56;;;24.94;58.97
75747;BME280;70632;52.232;21.038;2023-07-13T00:40:58;99825.84;;;24.75;59.54
75747;BME280;70632;52.232;21.038;2023-07-13T00:43:26;99811.19;;;24.49;59.78
75747;BME280;70632;52.232;21.038;2023-07-13T00:48:21;99816.81;;;23.91;62.58
75747;BME280;70632;52.232;21.038;2023-07-13T00:50:53;99819.28;;;23.75;63.37
75747;BME280;70632;52.232;21.038;2023-07-13T00:53:21;99813.91;;;24.02;62.51
75747;BME280;70632;52.232;21.038;2023-07-13T00:55:48;99821.31;;;24.19;61.59
75747;BME280;70632;52.232;21.038;2023-07-13T00:58:15;99818.38;;;24.40;60.92
75747;BME280;70632;52.232;21.038;2023-07-13T01:00:41;99814.56;;;24.60;60.17
75747;BME280;70632;52.232;21.038;2023-07-13T01:03:08;99817.81;;;24.37;61.05
75747;BME280;70632;52.232;21.038;2023-07-13T01:05:35;99816.91;;;24.18;61.76
75747;BME280;70632;52.232;21.038;2023-07-13T01:08:02;99816.09;;;23.79;63.15
75747;BME280;70632;52.232;21.038;2023-07-13T01:10:29;99806.00;;;23.99;62.18
75747;BME280;70632;52.232;21.038;2023-07-13T01:12:55;99822.03;;;24.31;61.42
75747;BME280;70632;52.232;21.038;2023-07-13T01:15:34;99823.47;;;24.62;60.33
75747;BME280;70632;52.232;21.038;2023-07-13T01:18:00;99818.94;;;24.44;60.87
75747;BME280;70632;52.232;21.038;2023-07-13T01:20:26;99821.63;;;24.16;62.22
75747;BME280;70632;52.232;21.038;2023-07-13T01:22:52;99826.56;;;23.84;62.89
75747;BME280;70632;52.232;21.038;2023-07-13T01:25:18;99827.94;;;24.07;62.60
75747;BME280;70632;52.232;21.038;2023-07-13T01:27:44;99823.78;;;24.03;62.45
75747;BME280;70632;52.232;21.038;2023-07-13T01:30:10;99832.84;;;23.94;63.16
75747;BME280;70632;52.232;21.038;2023-07-13T01:32:36;99831.72;;;23.87;63.59
75747;BME280;70632;52.232;21.038;2023-07-13T01:35:02;99833.28;;;23.90;64.01
75747;BME280;70632;52.232;21.038;2023-07-13T01:37:28;99842.16;;;23.92;63.80
75747;BME280;70632;52.232;21.038;2023-07-13T01:39:59;99837.59;;;23.73;64.11
75747;BME280;70632;52.232;21.038;2023-07-13T01:42:25;99853.22;;;23.52;65.34
75747;BME280;70632;52.232;21.038;2023-07-13T01:44:51;99858.06;;;23.96;63.94
75747;BME280;70632;52.232;21.038;2023-07-13T01:47:16;99854.03;;;24.10;64.01
75747;BME280;70632;52.232;21.038;2023-07-13T01:49:42;99849.28;;;24.21;63.29
75747;BME280;70632;52.232;21.038;2023-07-13T01:52:08;99849.28;;;24.21;63.06
75747;BME280;70632;52.232;21.038;2023-07-13T01:54:33;99856.03;;;24.17;63.28
75747;BME280;70632;52.232;21.038;2023-07-13T01:56:59;99837.88;;;24.45;62.15
75747;BME280;70632;52.232;21.038;2023-07-13T01:59:25;99844.59;;;24.51;62.21
75747;BME280;70632;52.232;21.038;2023-07-13T02:01:51;99848.00;;;24.62;61.88
75747;BME280;70632;52.232;21.038;2023-07-13T02:04:16;99849.94;;;24.43;62.69
75747;BME280;70632;52.232;21.038;2023-07-13T02:06:42;99850.06;;;24.51;62.22
75747;BME280;70632;52.232;21.038;2023-07-13T02:09:08;99855.50;;;23.95;64.03
75747;BME280;70632;52.232;21.038;2023-07-13T02:11:33;99849.16;;;24.13;63.20
75747;BME280;70632;52.232;21.038;2023-07-13T02:14:02;99859.19;;;24.03;63.86
75747;BME280;70632;52.232;21.038;2023-07-13T02:16:30;99861.09;;;23.93;64.06
75747;BME280;70632;52.232;21.038;2023-07-13T02:18:55;99875.53;;;24.03;63.75
75747;BME280;70632;52.232;21.038;2023-07-13T02:21:22;99864.97;;;23.71;64.88
75747;BME280;70632;52.232;21.038;2023-07-13T02:23:49;99869.84;;;23.49;66.22
75747;BME280;70632;52.232;21.038;2023-07-13T02:26:15;99863.53;;;23.77;65.47
75747;BME280;70632;52.232;21.038;2023-07-13T02:28:41;99861.75;;;24.34;63.43
75747;BME280;70632;52.232;21.038;2023-07-13T02:31:12;99862.28;;;24.47;62.21
75747;BME280;70632;52.232;21.038;2023-07-13T02:33:39;99872.88;;;24.50;62.53
75747;BME280;70632;52.232;21.038;2023-07-13T02:36:05;99870.25;;;24.58;62.12
75747;BME280;70632;52.232;21.038;2023-07-13T02:38:32;99871.22;;;24.66;61.67
75747;BME280;70632;52.232;21.038;2023-07-13T02:41:05;99882.63;;;24.80;61.54
75747;BME280;70632;52.232;21.038;2023-07-13T02:43:31;99870.72;;;24.90;60.85
75747;BME280;70632;52.232;21.038;2023-07-13T02:45:59;99865.34;;;24.98;60.35
75747;BME280;70632;52.232;21.038;2023-07-13T02:48:30;99862.00;;;25.04;60.08
75747;BME280;70632;52.232;21.038;2023-07-13T02:50:55;99868.28;;;25.14;59.80
75747;BME280;70632;52.232;21.038;2023-07-13T02:53:21;99864.78;;;25.22;59.22
75747;BME280;70632;52.232;21.038;2023-07-13T02:55:47;99858.84;;;25.27;59.36
75747;BME280;70632;52.232;21.038;2023-07-13T02:58:13;99858.53;;;25.30;59.18
75747;BME280;70632;52.232;21.038;2023-07-13T03:00:46;99869.63;;;25.46;59.09
75747;BME280;70632;52.232;21.038;2023-07-13T03:03:15;99864.94;;;25.38;59.41
75747;BME280;70632;52.232;21.038;2023-07-13T03:05:43;99851.97;;;25.40;59.42
75747;BME280;70632;52.232;21.038;2023-07-13T03:08:11;99868.00;;;25.53;59.11
75747;BME280;70632;52.232;21.038;2023-07-13T03:10:37;99860.41;;;25.47;59.53
75747;BME280;70632;52.232;21.038;2023-07-13T03:13:05;99864.84;;;25.48;59.29
75747;BME280;70632;52.232;21.038;2023-07-13T03:15:30;99862.84;;;25.50;59.38
75747;BME280;70632;52.232;21.038;2023-07-13T03:17:56;99859.66;;;25.54;59.53
75747;BME280;70632;52.232;21.038;2023-07-13T03:20:22;99866.00;;;25.55;59.20
75747;BME280;70632;52.232;21.038;2023-07-13T03:22:48;99862.84;;;25.50;59.79
75747;BME280;70632;52.232;21.038;2023-07-13T03:25:13;99862.94;;;25.58;59.29
75747;BME280;70632;52.232;21.038;2023-07-13T03:27:39;99862.81;;;25.59;59.01
75747;BME280;70632;52.232;21.038;2023-07-13T03:30:05;99841.56;;;25.53;59.42
75747;BME280;70632;52.232;21.038;2023-07-13T03:32:32;99854.44;;;25.61;59.23
75747;BME280;70632;52.232;21.038;2023-07-13T03:34:57;99851.38;;;25.64;59.39
75747;BME280;70632;52.232;21.038;2023-07-13T03:37:23;99840.38;;;25.56;59.84
75747;BME280;70632;52.232;21.038;2023-07-13T03:39:49;99853.56;;;25.60;59.69
75747;BME280;70632;52.232;21.038;2023-07-13T03:42:15;99849.69;;;25.63;59.92
75747;BME280;70632;52.232;21.038;2023-07-13T03:44:42;99842.97;;;25.57;60.18
75747;BME280;70632;52.232;21.038;2023-07-13T03:47:11;99830.38;;;25.47;60.21
75747;BME280;70632;52.232;21.038;2023-07-13T03:49:37;99836.47;;;25.41;60.12
75747;BME280;70632;52.232;21.038;2023-07-13T03:52:03;99832.72;;;25.42;60.20
75747;BME280;70632;52.232;21.038;2023-07-13T03:54:29;99838.41;;;25.31;60.88
75747;BME280;70632;52.232;21.038;2023-07-13T03:56:55;99843.78;;;25.23;61.39
75747;BME280;70632;52.232;21.038;2023-07-13T03:59:21;99849.16;;;25.32;61.45
75747;BME280;70632;52.232;21.038;2023-07-13T04:01:46;99846.25;;;24.98;62.45
75747;BME280;70632;52.232;21.038;2023-07-13T04:04:12;99847.88;;;24.91;63.05
75747;BME280;70632;52.232;21.038;2023-07-13T04:06:38;99855.84;;;25.02;62.58
75747;BME280;70632;52.232;21.038;2023-07-13T04:09:04;99856.97;;;25.27;61.80
75747;BME280;70632;52.232;21.038;2023-07-13T04:11:34;99863.44;;;25.44;60.92
75747;BME280;70632;52.232;21.038;2023-07-13T04:14:02;99854.09;;;25.29;61.47
75747;BME280;70632;52.232;21.038;2023-07-13T04:16:28;99857.22;;;25.34;61.46
75747;BME280;70632;52.232;21.038;2023-07-13T04:18:54;99868.09;;;25.61;60.58
75747;BME280;70632;52.232;21.038;2023-07-13T04:21:28;99873.41;;;25.63;60.42
75747;BME280;70632;52.232;21.038;2023-07-13T04:23:54;99880.69;;;25.44;61.04
75747;BME280;70632;52.232;21.038;2023-07-13T04:26:20;99867.63;;;25.66;60.59
75747;BME280;70632;52.232;21.038;2023-07-13T04:28:47;99881.75;;;26.04;59.66
75747;BME280;70632;52.232;21.038;2023-07-13T04:31:13;99882.88;;;26.12;59.22
75747;BME280;70632;52.232;21.038;2023-07-13T04:33:38;99907.28;;;26.13;59.36
75747;BME280;70632;52.232;21.038;2023-07-13T04:36:05;99897.16;;;26.05;59.69
75747;BME280;70632;52.232;21.038;2023-07-13T04:38:31;99900.91;;;26.04;59.86
75747;BME280;70632;52.232;21.038;2023-07-13T04:41:00;99899.75;;;26.07;59.96
75747;BME280;70632;52.232;21.038;2023-07-13T04:43:27;99905.81;;;26.19;59.32
75747;BME280;70632;52.232;21.038;2023-07-13T04:45:53;99899.56;;;26.26;59.16
75747;BME280;70632;52.232;21.038;2023-07-13T04:48:19;99895.69;;;26.37;59.00
75747;BME280;70632;52.232;21.038;2023-07-13T04:50:46;99910.41;;;26.36;59.22
75747;BME280;70632;52.232;21.038;2023-07-13T04:53:12;99905.81;;;26.44;58.97
75747;BME280;70632;52.232;21.038;2023-07-13T04:55:38;99908.38;;;26.38;59.36
75747;BME280;70632;52.232;21.038;2023-07-13T04:58:04;99909.22;;;26.38;59.50
75747;BME280;70632;52.232;21.038;2023-07-13T05:00:30;99901.03;;;26.38;59.15
75747;BME280;70632;52.232;21.038;2023-07-13T05:02:57;99903.97;;;26.45;58.68
75747;BME280;70632;52.232;21.038;2023-07-13T05:05:25;99907.41;;;26.47;58.69
75747;BME280;70632;52.232;21.038;2023-07-13T05:07:52;99905.69;;;26.46;58.86
75747;BME280;70632;52.232;21.038;2023-07-13T05:10:18;99917.56;;;26.37;59.17
75747;BME280;70632;52.232;21.038;2023-07-13T05:12:44;99912.09;;;26.37;58.93
75747;BME280;70632;52.232;21.038;2023-07-13T05:15:10;99904.94;;;26.36;58.86
75747;BME280;70632;52.232;21.038;2023-07-13T05:17:36;99923.28;;;26.43;58.61
75747;BME280;70632;52.232;21.038;2023-07-13T05:20:02;99920.06;;;26.48;58.53
75747;BME280;70632;52.232;21.038;2023-07-13T05:22:28;99924.34;;;26.50;58.58
75747;BME280;70632;52.232;21.038;2023-07-13T05:24:54;99908.75;;;26.43;58.21
75747;BME280;70632;52.232;21.038;2023-07-13T05:27:19;99922.81;;;26.48;58.23
75747;BME280;70632;52.232;21.038;2023-07-13T05:29:45;99937.53;;;26.55;58.10
75747;BME280;70632;52.232;21.038;2023-07-13T05:32:11;99944.75;;;26.64;57.91
75747;BME280;70632;52.232;21.038;2023-07-13T05:34:37;99951.03;;;26.57;58.21
75747;BME280;70632;52.232;21.038;2023-07-13T05:37:02;99955.75;;;26.72;57.53
75747;BME280;70632;52.232;21.038;2023-07-13T05:39:28;99954.19;;;26.70;57.71
75747;BME280;70632;52.232;21.038;2023-07-13T05:41:54;99962.94;;;26.73;57.83
75747;BME280;70632;52.232;21.038;2023-07-13T05:44:20;99952.31;;;26.70;57.72
75747;BME280;70632;52.232;21.038;2023-07-13T05:46:45;99962.91;;;26.91;57.24
75747;BME280;70632;52.232;21.038;2023-07-13T05:49:11;99961.72;;;26.93;56.99
75747;BME280;70632;52.232;21.038;2023-07-13T05:51:37;99960.91;;;27.01;56.85
75747;BME280;70632;52.232;21.038;2023-07-13T05:54:03;99954.56;;;27.00;56.60
75747;BME280;70632;52.232;21.038;2023-07-13T05:56:28;99962.47;;;27.04;56.67
75747;BME280;70632;52.232;21.038;2023-07-13T05:58:55;99943.31;;;27.04;56.31
75747;BME280;70632;52.232;21.038;2023-07-13T06:01:21;99951.03;;;27.08;56.51
75747;BME280;70632;52.232;21.038;2023-07-13T06:03:48;99942.66;;;27.10;55.63
75747;BME280;70632;52.232;21.038;2023-07-13T06:06:16;99945.59;;;27.16;55.99
75747;BME280;70632;52.232;21.038;2023-07-13T06:08:42;99945.03;;;27.13;56.13
75747;BME280;70632;52.232;21.038;2023-07-13T06:11:13;99928.84;;;27.19;56.04
75747;BME280;70632;52.232;21.038;2023-07-13T06:13:39;99942.75;;;27.34;55.99
75747;BME280;70632;52.232;21.038;2023-07-13T06:16:05;99935.38;;;27.34;56.00
75747;BME280;70632;52.232;21.038;2023-07-13T06:18:33;99937.09;;;27.35;55.63
75747;BME280;70632;52.232;21.038;2023-07-13T06:20:59;99945.81;;;27.31;55.13
75747;BME280;70632;52.232;21.038;2023-07-13T06:23:25;99950.44;;;27.30;55.98
75747;BME280;70632;52.232;21.038;2023-07-13T06:25:50;99939.28;;;27.24;55.63
75747;BME280;70632;52.232;21.038;2023-07-13T06:28:16;99940.66;;;27.20;55.85
75747;BME280;70632;52.232;21.038;2023-07-13T06:30:42;99943.06;;;27.31;55.22
75747;BME280;70632;52.232;21.038;2023-07-13T06:33:08;99929.38;;;27.31;55.13
75747;BME280;70632;52.232;21.038;2023-07-13T06:35:33;99929.78;;;27.44;55.56
75747;BME280;70632;52.232;21.038;2023-07-13T06:37:59;99927.19;;;27.42;55.17
75747;BME280;70632;52.232;21.038;2023-07-13T06:40:25;99930.94;;;27.41;54.68
75747;BME280;70632;52.232;21.038;2023-07-13T06:42:51;99929.03;;;27.34;53.89
75747;BME280;70632;52.232;21.038;2023-07-13T06:45:17;99929.94;;;27.42;53.58
75747;BME280;70632;52.232;21.038;2023-07-13T06:47:42;99911.09;;;27.39;53.04
75747;BME280;70632;52.232;21.038;2023-07-13T06:50:08;99923.69;;;27.24;50.62
75747;BME280;70632;52.232;21.038;2023-07-13T06:52:34;99918.09;;;27.34;50.06
75747;BME280;70632;52.232;21.038;2023-07-13T06:55:00;99926.84;;;27.45;49.14
75747;BME280;70632;52.232;21.038;2023-07-13T06:57:26;99925.59;;;27.24;46.88
75747;BME280;70632;52.232;21.038;2023-07-13T06:59:52;99933.31;;;26.86;47.39
75747;BME280;70632;52.232;21.038;2023-07-13T07:02:18;99936.88;;;27.21;47.15
75747;BME280;70632;52.232;21.038;2023-07-13T07:04:44;99931.75;;;27.26;46.40
75747;BME280;70632;52.232;21.038;2023-07-13T07:07:09;99924.19;;;27.12;45.68
75747;BME280;70632;52.232;21.038;2023-07-13T07:09:35;99919.13;;;27.41;46.07
75747;BME280;70632;52.232;21.038;2023-07-13T07:12:02;99908.41;;;27.48;46.81
75747;BME280;70632;52.232;21.038;2023-07-13T07:14:28;99906.16;;;27.43;44.05
75747;BME280;70632;52.232;21.038;2023-07-13T07:16:54;99916.16;;;27.60;44.37
75747;BME280;70632;52.232;21.038;2023-07-13T07:19:19;99917.16;;;27.51;44.29
75747;BME280;70632;52.232;21.038;2023-07-13T07:21:45;99919.47;;;27.38;44.87
75747;BME280;70632;52.232;21.038;2023-07-13T07:24:11;99924.31;;;27.44;45.23
75747;BME280;70632;52.232;21.038;2023-07-13T07:26:36;99911.28;;;27.46;45.24
75747;BME280;70632;52.232;21.038;2023-07-13T07:29:02;99933.06;;;27.48;44.76
75747;BME280;70632;52.232;21.038;2023-07-13T07:31:28;99936.72;;;27.64;43.77
75747;BME280;70632;52.232;21.038;2023-07-13T07:33:54;99937.88;;;27.62;44.18
75747;BME280;70632;52.232;21.038;2023-07-13T07:36:19;99928.31;;;27.82;44.65
75747;BME280;70632;52.232;21.038;2023-07-13T07:38:45;99936.22;;;27.93;44.64
75747;BME280;70632;52.232;21.038;2023-07-13T07:41:11;99922.84;;;27.90;44.29
75747;BME280;70632;52.232;21.038;2023-07-13T07:43:37;99930.22;;;27.89;44.47
75747;BME280;70632;52.232;21.038;2023-07-13T07:46:03;99924.56;;;27.83;44.69
75747;BME280;70632;52.232;21.038;2023-07-13T07:48:28;99933.97;;;27.88;43.68
75747;BME280;70632;52.232;21.038;2023-07-13T07:50:54;99933.66;;;28.08;41.88
75747;BME280;70632;52.232;21.038;2023-07-13T07:53:20;99930.97;;;28.16;41.93
75747;BME280;70632;52.232;21.038;2023-07-13T07:55:46;99931.63;;;28.18;42.73
75747;BME280;70632;52.232;21.038;2023-07-13T07:58:11;99939.34;;;28.30;42.83
75747;BME280;70632;52.232;21.038;2023-07-13T08:00:37;99939.69;;;28.19;43.40
75747;BME280;70632;52.232;21.038;2023-07-13T08:03:03;99939.69;;;28.35;43.62
75747;BME280;70632;52.232;21.038;2023-07-13T08:05:29;99936.94;;;28.35;43.90
75747;BME280;70632;52.232;21.038;2023-07-13T08:07:54;99925.47;;;28.16;44.66
75747;BME280;70632;52.232;21.038;2023-07-13T08:10:20;99930.59;;;28.43;44.50
75747;BME280;70632;52.232;21.038;2023-07-13T08:12:46;99938.28;;;28.07;43.45
75747;BME280;70632;52.232;21.038;2023-07-13T08:15:14;99956.66;;;27.07;41.97
75747;BME280;70632;52.232;21.038;2023-07-13T08:17:41;99936.84;;;27.55;41.01
75747;BME280;70632;52.232;21.038;2023-07-13T08:20:07;99933.81;;;27.82;41.51
75747;BME280;70632;52.232;21.038;2023-07-13T08:22:35;99934.81;;;27.81;40.23
75747;BME280;70632;52.232;21.038;2023-07-13T08:25:01;99938.41;;;27.73;40.37
75747;BME280;70632;52.232;21.038;2023-07-13T08:27:28;99941.06;;;28.15;38.90
75747;BME280;70632;52.232;21.038;2023-07-13T08:29:54;99927.16;;;28.41;39.17
75747;BME280;70632;52.232;21.038;2023-07-13T08:32:21;99932.97;;;28.46;39.30
75747;BME280;70632;52.232;21.038;2023-07-13T08:34:48;99942.56;;;28.50;39.58
75747;BME280;70632;52.232;21.038;2023-07-13T08:37:14;99930.91;;;28.72;39.45
75747;BME280;70632;52.232;21.038;2023-07-13T08:39:40;99932.41;;;28.91;39.47
75747;BME280;70632;52.232;21.038;2023-07-13T08:45:21;99943.06;;;29.25;39.71
75747;BME280;70632;52.232;21.038;2023-07-13T08:47:54;99953.00;;;29.26;37.84
75747;BME280;70632;52.232;21.038;2023-07-13T08:50:27;99953.34;;;28.92;38.88
75747;BME280;70632;52.232;21.038;2023-07-13T08:52:56;99950.53;;;29.47;38.77
75747;BME280;70632;52.232;21.038;2023-07-13T08:55:27;99956.50;;;29.90;37.82
75747;BME280;70632;52.232;21.038;2023-07-13T08:58:00;99953.34;;;30.01;38.16
75747;BME280;70632;52.232;21.038;2023-07-13T09:03:25;99956.66;;;30.34;37.37
75747;BME280;70632;52.232;21.038;2023-07-13T09:05:57;99964.75;;;30.73;36.79
75747;BME280;70632;52.232;21.038;2023-07-13T09:11:14;99951.88;;;32.03;34.44
75747;BME280;70632;52.232;21.038;2023-07-13T09:13:57;99952.72;;;32.68;33.46
75747;BME280;70632;52.232;21.038;2023-07-13T09:16:26;99943.34;;;33.24;32.13
75747;BME280;70632;52.232;21.038;2023-07-13T09:18:54;99944.47;;;33.36;32.08
75747;BME280;70632;52.232;21.038;2023-07-13T09:21:24;99943.97;;;33.26;32.37
75747;BME280;70632;52.232;21.038;2023-07-13T09:23:54;99945.50;;;33.35;32.40
75747;BME280;70632;52.232;21.038;2023-07-13T09:26:28;99942.75;;;33.35;32.15
75747;BME280;70632;52.232;21.038;2023-07-13T09:29:25;99938.31;;;33.41;31.81
75747;BME280;70632;52.232;21.038;2023-07-13T09:31:54;99942.13;;;33.40;31.83
75747;BME280;70632;52.232;21.038;2023-07-13T09:34:21;99927.25;;;33.41;31.97
75747;BME280;70632;52.232;21.038;2023-07-13T09:36:46;99943.00;;;33.40;31.75
75747;BME280;70632;52.232;21.038;2023-07-13T09:39:24;99932.41;;;33.10;32.38
75747;BME280;70632;52.232;21.038;2023-07-13T09:44:18;99928.72;;;32.19;33.28
75747;BME280;70632;52.232;21.038;2023-07-13T09:46:54;99917.44;;;31.42;33.89
75747;BME280;70632;52.232;21.038;2023-07-13T09:49:28;99933.22;;;30.90;34.97
75747;BME280;70632;52.232;21.038;2023-07-13T09:52:03;99935.50;;;29.97;36.37
75747;BME280;70632;52.232;21.038;2023-07-13T09:54:32;99943.50;;;29.75;36.94
75747;BME280;70632;52.232;21.038;2023-07-13T09:56:59;99941.28;;;29.48;38.03
75747;BME280;70632;52.232;21.038;2023-07-13T09:59:35;99919.50;;;29.00;38.60
75747;BME280;70632;52.232;21.038;2023-07-13T10:02:22;99919.00;;;28.96;38.74
75747;BME280;70632;52.232;21.038;2023-07-13T10:04:55;99909.16;;;29.10;38.80
75747;BME280;70632;52.232;21.038;2023-07-13T10:07:22;99910.47;;;29.22;37.79
75747;BME280;70632;52.232;21.038;2023-07-13T10:09:52;99888.84;;;29.19;37.43
75747;BME280;70632;52.232;21.038;2023-07-13T10:12:20;99902.16;;;29.38;37.56
75747;BME280;70632;52.232;21.038;2023-07-13T10:14:46;99905.66;;;29.32;37.42
75747;BME280;70632;52.232;21.038;2023-07-13T10:17:14;99909.81;;;29.20;37.83
75747;BME280;70632;52.232;21.038;2023-07-13T10:19:41;99891.28;;;29.14;38.13
75747;BME280;70632;52.232;21.038;2023-07-13T10:22:24;99902.28;;;29.06;38.19
75747;BME280;70632;52.232;21.038;2023-07-13T10:24:53;99901.38;;;28.82;39.13
75747;BME280;70632;52.232;21.038;2023-07-13T10:27:29;99902.63;;;28.56;39.68
75747;BME280;70632;52.232;21.038;2023-07-13T10:32:27;99904.03;;;28.35;39.95
75747;BME280;70632;52.232;21.038;2023-07-13T10:34:52;99900.78;;;28.40;39.93
75747;BME280;70632;52.232;21.038;2023-07-13T10:37:30;99894.56;;;28.46;40.25
75747;BME280;70632;52.232;21.038;2023-07-13T10:39:59;99902.81;;;28.38;40.29
75747;BME280;70632;52.232;21.038;2023-07-13T10:42:30;99896.34;;;28.15;41.67
75747;BME280;70632;52.232;21.038;2023-07-13T10:44:58;99916.91;;;28.19;41.87
75747;BME280;70632;52.232;21.038;2023-07-13T10:47:24;99920.13;;;28.06;43.19
75747;BME280;70632;52.232;21.038;2023-07-13T10:49:54;99912.41;;;27.85;44.92
75747;BME280;70632;52.232;21.038;2023-07-13T10:52:41;99929.34;;;27.89;49.92
75747;BME280;70632;52.232;21.038;2023-07-13T10:55:40;99907.00;;;27.43;50.11
75747;BME280;70632;52.232;21.038;2023-07-13T10:58:28;99898.34;;;26.80;54.32
75747;BME280;70632;52.232;21.038;2023-07-13T11:03:30;99920.69;;;26.42;56.51
75747;BME280;70632;52.232;21.038;2023-07-13T11:11:37;99992.25;;;25.02;60.90
75747;BME280;70632;52.232;21.038;2023-07-13T11:14:28;99988.44;;;24.76;62.53
75747;BME280;70632;52.232;21.038;2023-07-13T11:16:54;99989.47;;;24.56;64.06
75747;BME280;70632;52.232;21.038;2023-07-13T11:25:01;100020.47;;;23.97;68.77
75747;BME280;70632;52.232;21.038;2023-07-13T11:27:41;100028.97;;;24.42;66.30
75747;BME280;70632;52.232;21.038;2023-07-13T11:41:43;100022.19;;;25.76;59.93
75747;BME280;70632;52.232;21.038;2023-07-13T11:44:16;100020.91;;;25.53;61.16
75747;BME280;70632;52.232;21.038;2023-07-13T11:46:49;100023.81;;;25.42;62.95
75747;BME280;70632;52.232;21.038;2023-07-13T11:49:20;100035.28;;;25.45;60.76
75747;BME280;70632;52.232;21.038;2023-07-13T11:51:47;100033.53;;;25.27;62.35
75747;BME280;70632;52.232;21.038;2023-07-13T11:56:53;100035.38;;;25.63;58.97
75747;BME280;70632;52.232;21.038;2023-07-13T11:59:20;100040.06;;;25.71;59.90
75747;BME280;70632;52.232;21.038;2023-07-13T12:01:51;100022.09;;;25.41;59.30
75747;BME280;70632;52.232;21.038;2023-07-13T12:04:26;100028.44;;;25.32;60.80
75747;BME280;70632;52.232;21.038;2023-07-13T12:06:58;100036.72;;;25.49;58.95
75747;BME280;70632;52.232;21.038;2023-07-13T12:09:28;100037.06;;;25.64;59.64
75747;BME280;70632;52.232;21.038;2023-07-13T12:11:56;100035.22;;;25.65;60.88
75747;BME280;70632;52.232;21.038;2023-07-13T12:14:22;100044.78;;;25.78;62.83
75747;BME280;70632;52.232;21.038;2023-07-13T12:16:50;100043.38;;;25.92;58.61
75747;BME280;70632;52.232;21.038;2023-07-13T12:19:25;100029.47;;;25.03;61.67
75747;BME280;70632;52.232;21.038;2023-07-13T12:21:57;100030.38;;;24.75;61.61
75747;BME280;70632;52.232;21.038;2023-07-13T12:24:24;100038.94;;;24.80;61.77
75747;BME280;70632;52.232;21.038;2023-07-13T12:26:58;100049.00;;;24.99;61.68
75747;BME280;70632;52.232;21.038;2023-07-13T12:29:25;100020.78;;;25.17;60.63
75747;BME280;70632;52.232;21.038;2023-07-13T12:31:51;100037.13;;;25.17;60.64
75747;BME280;70632;52.232;21.038;2023-07-13T12:34:20;100016.72;;;25.22;63.54
75747;BME280;70632;52.232;21.038;2023-07-13T12:36:52;100022.50;;;25.19;64.77
75747;BME280;70632;52.232;21.038;2023-07-13T12:39:20;100020.31;;;25.49;63.51
75747;BME280;70632;52.232;21.038;2023-07-13T12:41:48;100017.31;;;25.52;63.65
75747;BME280;70632;52.232;21.038;2023-07-13T12:44:23;100013.34;;;25.65;62.83
75747;BME280;70632;52.232;21.038;2023-07-13T12:46:58;100011.09;;;25.60;61.91
75747;BME280;70632;52.232;21.038;2023-07-13T12:49:27;99999.25;;;25.42;64.16
75747;BME280;70632;52.232;21.038;2023-07-13T12:51:58;99986.28;;;25.16;63.85
75747;BME280;70632;52.232;21.038;2023-07-13T12:54:25;99996.22;;;25.45;63.54
75747;BME280;70632;52.232;21.038;2023-07-13T12:56:53;100006.53;;;25.51;63.22
75747;BME280;70632;52.232;21.038;2023-07-13T12:59:21;100003.94;;;25.59;62.36
75747;BME280;70632;52.232;21.038;2023-07-13T13:01:48;100021.63;;;25.55;61.52
75747;BME280;70632;52.232;21.038;2023-07-13T13:04:15;100028.25;;;25.52;62.50
75747;BME280;70632;52.232;21.038;2023-07-13T13:06:41;100023.56;;;25.35;62.42
75747;BME280;70632;52.232;21.038;2023-07-13T13:09:16;100020.66;;;25.37;62.01
75747;BME280;70632;52.232;21.038;2023-07-13T13:11:47;100019.47;;;25.49;61.74
75747;BME280;70632;52.232;21.038;2023-07-13T13:14:12;100013.34;;;25.65;63.16
75747;BME280;70632;52.232;21.038;2023-07-13T13:16:47;100012.41;;;25.83;61.92
75747;BME280;70632;52.232;21.038;2023-07-13T13:21:47;100009.59;;;26.11;61.47
75747;BME280;70632;52.232;21.038;2023-07-13T13:24:17;100014.50;;;26.07;62.25
75747;BME280;70632;52.232;21.038;2023-07-13T13:26:44;100021.78;;;25.98;61.79
75747;BME280;70632;52.232;21.038;2023-07-13T13:29:18;100022.78;;;25.97;61.56
75747;BME280;70632;52.232;21.038;2023-07-13T13:31:45;100017.06;;;25.73;62.31
75747;BME280;70632;52.232;21.038;2023-07-13T13:34:13;100025.81;;;25.94;62.72
75747;BME280;70632;52.232;21.038;2023-07-13T13:36:41;100027.19;;;25.63;64.21
75747;BME280;70632;52.232;21.038;2023-07-13T13:41:47;100032.56;;;25.73;64.28